FOLSOM LAKE (FOL)

Elevation: 466' · AMERICAN R basin · Operator: US Bureau of Reclamation

Provisional data, subject to change.
Query executed Tuesday at 11:52:42

Select a sensor type for a plot of data.
Note: Reservoir Flows are daily averages.

Earlier

Date RES ELE    STORAGE    RES CHG    TOC STO    ABV TOC    OUTFLOW    INFLOW    EVAP    FNF    RIV REL    PPT INC    SPILL    DC PUMP    DIS PWR   
 FEET   AF   AF   AF   AF   CFS   CFS   CFS   CFS   CFS   INCHES   CFS   CFS   CFS  
11/07/2016 399.77 377892 1717 666796 -288904 1267 2146 13 2276 497 0.00 0 83 687
11/08/2016 399.98 379278 1386 658633 -279355 1246 1958 13 2160 497 0.00 0 82 667
11/09/2016 400.17 380545 1267 650469 -269924 1151 1790 0 1906 497 0.00 0 77 577
11/10/2016 400.37 381881 1336 642306 -260425 1176 1850 0 1873 497 0.00 0 72 607
11/11/2016 400.40 382081 200 634143 -252062 1234 1353 18 1450 497 0.00 0 86 651
11/12/2016 400.56 383150 1069 625980 -242830 1219 1760 2 1111 497 0.00 0 98 624
11/13/2016 400.78 384619 1469 617816 -233197 1276 2017 0 1242 e 497 0.00 0 97 682
11/14/2016 400.90 385420 801 609653 -224233 1253 1673 16 1242 e 498 0.00 0 94 661
11/15/2016 401.05 386426 1006 601490 -215064 1238 1759 14 1011 498 0.00 0 76 664
11/16/2016 401.31 388183 1757 593326 -205144 1288 2195 21 1258 499 0.00 0 68 721
11/17/2016 401.59 390076 1893 585163 -195087 1130 2102 18 1562 499 0.00 0 69 562
11/18/2016 401.77 391292 1216 577000 -185708 1033 1664 18 833 499 0.00 0 80 454
11/19/2016 402.16 393941 2649 577000 -183059 1092 2428 0 1743 499 0.77 0 87 506
11/20/2016 403.02 399824 5883 577000 -177176 1088 4212 158 4384 500 0.00 0 85 503
11/21/2016 403.72 404668 4844 577000 -172332 1133 3575 0 3360 501 0.02 0 81 551
11/22/2016 404.21 408075 3407 -- -- 1314 3041 9 2812 502 0.00 0 72 740
11/23/2016 404.74 411785 3710 -- -- 1029 2899 0 2198 503 0.26 0 69 457
11/24/2016 405.32 415871 4086 577000 -161129 1146 3223 17 2266 183 0.00 0 71 892
11/25/2016 405.85 419623 3752 577000 -157377 1274 3173 7 2094 0 0.00 0 78 1196
11/26/2016 406.55 424624 5001 577000 -152376 1069 3590 0 2518 0 0.70 0 75 994
11/27/2016 407.54 431758 7134 577000 -145242 1181 4783 5 4176 0 0.25 0 74 1107
11/28/2016 408.40 438018 6260 577000 -138982 1205 4361 0 3252 0 0.02 0 77 1128
11/29/2016 409.00 442411 4393 577000 -134589 1217 3437 5 2491 0 0.00 0 70 1147
11/30/2016 409.59 446779 4368 577000 -130221 1034 3241 5 2980 0 0.00 0 66 968
12/01/2016 410.10 450563 3784 577000 -126437 1096 3024 20 -- 0 0.00 0 67 1029
12/02/2016 410.53 453780 3217 577000 -123220 1237 2897 38 -- 0 0.00 0 76 1161
12/03/2016 410.94 456847 3067 577000 -120153 1249 2808 13 -- 0 0.00 0 71 1178
12/04/2016 411.36 460016 3169 577000 -116984 1178 2784 8 -- 0 0.00 0 78 1100
12/05/2016 411.63 462056 2040 577000 -114944 1408 2444 8 -- 0 0.00 0 76 1332
12/06/2016 -- -- -- -- -- -- -- -- -- -- -- -- -- --

Later | Latest

Warning! This data is preliminary and subject to revision.

Show FOL Map | Plot FOL Data | 1 Month FOL Data | Real-Time FOL Data | FOL Info